chto-takoe.net alexa rank chart, chto-takoe.net alexa rank daily changes

chto-takoe.net alexa rank chart, chto-takoe.net alexa rank daily changes

chto-takoe.net
Actual rank:
347 730

RANK HISTORY

Date Rank Diff
2018/10/21 347 730 +33 022
2018/10/20 314 708 +105 253
2018/10/19 209 455 -126 332
2018/10/18 335 787 +129 685
2018/10/17 206 102 -44 000
2018/10/16 250 102 +27 031
2018/10/15 223 071 -68 280
2018/10/14 291 351 -54 781
2018/10/13 346 132 -41 064
2018/10/12 387 196 +198 493
2018/10/11 188 703 -134 275
2018/10/10 322 978 +124 641
2018/10/09 198 337 -25 966
2018/10/08 224 303 -68 166
2018/10/07 292 469 -66 770
2018/10/06 359 239 +90 155
2018/10/05 269 084 +93 052
2018/10/04 176 032 -172 747
2018/10/03 348 779 +190 987
2018/10/02 157 792 -185 959
2018/10/01 343 751 +71 823
2018/09/30 271 928 -16 497
2018/09/29 288 425 -79 636
2018/09/28 368 061 +75 362
2018/09/27 292 699 +77 412
2018/09/26 215 287 +8 917
2018/09/25 206 370 -123 721
2018/09/24 330 091 +29 478
2018/09/23 300 613 +21 840
2018/09/22 278 773 -85 367
2018/09/21 364 140 +39 266
2018/09/20 324 874 +49 369
2018/09/19 275 505 +8 103
2018/09/18 267 402 -88 723
2018/09/17 356 125 +46 688
2018/09/16 309 437 +15 272
2018/09/15 294 165 -69 618
2018/09/14 363 783 +75 861
2018/09/13 287 922 -6 084
2018/09/12 294 006 +53 985
2018/09/11 240 021 -151 857
2018/09/10 391 878 +222 423
2018/09/09 169 455 -164 205
2018/09/08 333 660 +106 497
2018/09/07 227 163 -70 895
2018/09/06 298 058 -43 425
2018/09/05 341 483 +177 132
2018/09/04 164 351 -299 580
2018/09/03 463 931 +84 104
2018/09/02 379 827 -25 073
2018/09/01 404 900 +144 299
2018/08/31 260 601 -86 828
2018/08/30 347 429 -99 334
2018/08/29 446 763 +24 801
2018/08/28 421 962 +86 688
2018/08/27 335 274 +67 227
2018/08/26 268 047 -116 286
2018/08/25 384 333 +28 077
2018/08/24 356 256 -43 672
2018/08/23 399 928 +17 187
2018/08/22 382 741

WIDGET FOR YOUR SITE

DOMAINS WITH THE NEAREST RANK

Domain Rank
ntlogistics.vn 347 725
smartix.com.ar 347 726
bankrbk.kz 347 727
ru-world.net 347 728
butterflypublisher.com 347 729
chto-takoe.net 347 730
fuckretrotube.com 347 731
tattydevine.com 347 732
banana1015.com 347 733
thegreatwesternmovies.com 347 734
bokepxnxx.pro 347 735

DOMAINS WITH THE NEAREST RANK BY TLD .net

Domain Rank
rmoff.net 347 667
mmovsg.net 347 674
motionkinetic.net 347 682
javgay.net 347 697
ru-world.net 347 728
chto-takoe.net 347 730
friedrichshagen.net 347 803
taxpool.net 347 881
excelvba.net 347 917
cloudbunny.net 347 951
biblescripture.net 347 959